createdAt,value
2022-11-20T00:02:05.796Z,2.54
2022-11-20T00:05:09.044Z,2.46
2022-11-20T00:08:11.859Z,2.51
2022-11-20T00:11:21.082Z,2.48
2022-11-20T00:14:23.500Z,2.54
2022-11-20T00:17:26.021Z,2.56
2022-11-20T00:20:28.421Z,2.55
2022-11-20T00:23:31.576Z,2.60
2022-11-20T00:26:34.152Z,2.69
2022-11-20T00:29:36.610Z,2.76
2022-11-20T00:32:39.036Z,2.76
2022-11-20T00:35:41.422Z,2.78
2022-11-20T00:38:44.873Z,2.83
2022-11-20T00:41:47.248Z,2.85
2022-11-20T00:44:49.732Z,2.88
2022-11-20T00:47:52.058Z,2.89
2022-11-20T00:50:55.395Z,2.90
2022-11-20T00:53:58.796Z,2.91
2022-11-20T00:57:01.198Z,2.92
2022-11-20T01:00:04.044Z,2.94
2022-11-20T01:03:06.461Z,2.94
2022-11-20T01:06:12.996Z,2.96
2022-11-20T01:09:15.957Z,2.94
2022-11-20T01:12:18.340Z,2.98
2022-11-20T01:15:20.641Z,2.99
2022-11-20T01:18:23.066Z,2.92
2022-11-20T01:21:30.735Z,2.88
2022-11-20T01:24:33.254Z,2.80
2022-11-20T01:27:35.744Z,2.74
2022-11-20T01:30:38.105Z,2.70
2022-11-20T01:33:42.408Z,2.66
2022-11-20T01:36:45.790Z,2.67
2022-11-20T01:39:48.136Z,2.66
2022-11-20T01:43:21.108Z,2.69
2022-11-20T01:46:23.478Z,2.67
2022-11-20T01:49:40.504Z,2.69
2022-11-20T01:52:48.386Z,2.69
2022-11-20T01:55:56.339Z,2.67
2022-11-20T01:59:02.249Z,2.62
2022-11-20T02:02:04.737Z,2.64
2022-11-20T02:05:16.143Z,2.56
2022-11-20T02:08:21.044Z,2.56
2022-11-20T02:11:23.518Z,2.47
2022-11-20T02:14:27.702Z,2.53
2022-11-20T02:17:30.682Z,2.54
2022-11-20T02:20:33.776Z,2.54
2022-11-20T02:24:08.401Z,2.55
2022-11-20T02:27:13.669Z,2.53
2022-11-20T02:30:16.675Z,2.45
2022-11-20T02:33:19.065Z,2.37
2022-11-20T02:36:21.464Z,2.37
2022-11-20T02:39:26.730Z,2.33
2022-11-20T02:42:29.150Z,2.27
2022-11-20T02:45:31.619Z,2.18
2022-11-20T02:48:34.225Z,2.04
2022-11-20T02:51:36.737Z,2.07
2022-11-20T02:54:39.120Z,2.03
2022-11-20T02:57:41.631Z,1.97
2022-11-20T03:00:44.046Z,1.95
2022-11-20T03:03:46.639Z,1.94
2022-11-20T03:06:49.094Z,1.91
2022-11-20T03:09:51.550Z,1.90
2022-11-20T03:12:57.387Z,1.88
2022-11-20T03:15:59.847Z,1.84
2022-11-20T03:19:02.303Z,1.81
2022-11-20T03:22:04.847Z,1.80
2022-11-20T03:25:07.670Z,1.73
2022-11-20T03:28:10.141Z,1.76
2022-11-20T03:31:15.039Z,1.75
2022-11-20T03:34:17.473Z,1.73
2022-11-20T03:37:19.968Z,1.70
2022-11-20T03:40:22.440Z,1.69
2022-11-20T03:43:24.860Z,1.67
2022-11-20T03:46:28.938Z,1.68
2022-11-20T03:49:31.417Z,1.68
2022-11-20T03:52:33.812Z,1.67
2022-11-20T03:55:36.285Z,1.68
2022-11-20T03:58:43.111Z,1.68
2022-11-20T04:01:49.283Z,1.66
2022-11-20T04:04:52.039Z,1.64
2022-11-20T04:07:54.430Z,1.58
2022-11-20T04:10:56.843Z,1.57
2022-11-20T04:14:01.568Z,1.55
2022-11-20T04:17:04.996Z,1.54
2022-11-20T04:20:08.030Z,1.47
2022-11-20T04:23:10.419Z,1.49
2022-11-20T04:26:13.534Z,1.49
2022-11-20T04:29:16.077Z,1.50
2022-11-20T04:32:18.514Z,1.50
2022-11-20T04:35:20.949Z,1.48
2022-11-20T04:38:23.280Z,1.47
2022-11-20T04:41:28.198Z,1.46
2022-11-20T04:44:30.530Z,1.51
2022-11-20T04:47:32.884Z,1.50
2022-11-20T04:50:35.204Z,1.49
2022-11-20T04:53:38.682Z,1.44
2022-11-20T04:56:40.962Z,1.37
2022-11-20T04:59:43.485Z,1.43
2022-11-20T05:02:45.826Z,1.42
2022-11-20T05:05:48.297Z,1.43
2022-11-20T05:08:50.902Z,1.42
2022-11-20T05:11:53.276Z,1.41
2022-11-20T05:14:55.693Z,1.44
2022-11-20T05:17:58.172Z,1.42
2022-11-20T05:21:00.721Z,1.46
2022-11-20T05:24:03.203Z,1.43
2022-11-20T05:27:05.700Z,1.45
2022-11-20T05:30:09.234Z,1.38
2022-11-20T05:33:11.675Z,1.43
2022-11-20T05:36:16.205Z,1.40
2022-11-20T05:39:18.776Z,1.43
2022-11-20T05:42:33.399Z,1.40
2022-11-20T05:45:36.388Z,1.42
2022-11-20T05:48:40.473Z,1.43
2022-11-20T05:51:42.834Z,1.45
2022-11-20T05:54:45.287Z,1.44
2022-11-20T05:57:47.655Z,1.43
2022-11-20T06:00:50.041Z,1.43
2022-11-20T06:03:53.688Z,1.42
2022-11-20T06:06:56.076Z,1.42
2022-11-20T06:09:58.481Z,1.39
2022-11-20T06:13:00.980Z,1.41
2022-11-20T06:16:04.160Z,1.46
2022-11-20T06:19:06.631Z,1.48
2022-11-20T06:22:09.084Z,1.50
2022-11-20T06:25:11.697Z,1.51
2022-11-20T06:28:14.051Z,1.56
2022-11-20T06:31:19.381Z,1.60
2022-11-20T06:34:21.744Z,1.60
2022-11-20T06:37:24.099Z,1.63
2022-11-20T06:40:26.589Z,1.65
2022-11-20T06:43:30.215Z,1.67
2022-11-20T06:46:33.772Z,1.67
2022-11-20T06:49:38.290Z,1.68
2022-11-20T06:52:43.660Z,1.63
2022-11-20T06:55:47.907Z,1.66
2022-11-20T06:58:50.828Z,1.65
2022-11-20T07:01:53.633Z,1.69
2022-11-20T07:04:56.055Z,1.69
2022-11-20T07:07:59.095Z,1.72
2022-11-20T07:11:04.136Z,1.66
2022-11-20T07:14:06.736Z,1.63
2022-11-20T07:17:09.369Z,1.65
2022-11-20T07:20:12.809Z,1.69
2022-11-20T07:23:15.319Z,1.67
2022-11-20T07:26:17.885Z,1.66
2022-11-20T07:29:20.564Z,1.71
2022-11-20T07:32:23.332Z,1.70
2022-11-20T07:35:26.293Z,1.73
2022-11-20T07:38:28.977Z,1.76
2022-11-20T07:41:31.549Z,1.80
2022-11-20T07:44:34.005Z,1.86
2022-11-20T07:47:37.892Z,1.90
2022-11-20T07:50:40.237Z,1.93
2022-11-20T07:53:42.722Z,2.01
2022-11-20T07:56:45.058Z,2.05
2022-11-20T07:59:47.546Z,2.09
2022-11-20T08:02:50.098Z,2.11
2022-11-20T08:05:53.175Z,2.10
2022-11-20T08:08:55.711Z,2.19
2022-11-20T08:12:16.764Z,2.25
2022-11-20T08:15:19.309Z,2.25
2022-11-20T08:18:36.933Z,2.14
2022-11-20T08:21:39.740Z,2.09
2022-11-20T08:24:42.185Z,2.07
2022-11-20T08:27:44.588Z,2.10
2022-11-20T08:30:47.187Z,2.12
2022-11-20T08:33:49.884Z,2.08
2022-11-20T08:36:52.397Z,2.15
2022-11-20T08:39:55.339Z,2.27
2022-11-20T08:42:57.765Z,2.32
2022-11-20T08:46:00.132Z,2.35
2022-11-20T08:49:02.707Z,2.28
2022-11-20T08:52:05.185Z,2.26
2022-11-20T08:55:08.807Z,2.33
2022-11-20T08:58:11.194Z,2.38
2022-11-20T09:01:13.750Z,2.48
2022-11-20T09:04:16.873Z,2.54
2022-11-20T09:07:19.461Z,2.55
2022-11-20T09:10:24.342Z,2.44
2022-11-20T09:13:28.868Z,2.53
2022-11-20T09:16:31.271Z,2.61
2022-11-20T09:19:36.120Z,2.68
2022-11-20T09:22:41.410Z,2.68
2022-11-20T09:25:44.540Z,2.73
2022-11-20T09:28:47.022Z,2.76
2022-11-20T09:31:49.676Z,2.80
2022-11-20T09:34:52.069Z,2.86
2022-11-20T09:37:54.521Z,2.88
2022-11-20T09:40:59.375Z,2.80
2022-11-20T09:44:01.654Z,2.89
2022-11-20T09:47:04.091Z,2.91
2022-11-20T09:50:31.413Z,2.90
2022-11-20T09:54:11.446Z,2.94
2022-11-20T09:57:19.752Z,2.92
2022-11-20T10:00:23.262Z,2.89
2022-11-20T10:03:40.980Z,2.95
2022-11-20T10:07:10.409Z,2.97
2022-11-20T10:10:21.336Z,2.95
2022-11-20T10:13:39.658Z,2.91
2022-11-20T10:17:00.897Z,2.99
2022-11-20T10:21:04.462Z,3.05
2022-11-20T10:24:25.314Z,3.15
2022-11-20T10:27:46.004Z,3.13
2022-11-20T10:31:01.329Z,3.20
2022-11-20T10:34:25.224Z,3.21
2022-11-20T10:37:29.711Z,3.22
2022-11-20T10:40:52.777Z,3.20
2022-11-20T10:44:13.446Z,3.25
2022-11-20T10:47:17.829Z,3.30
2022-11-20T10:50:23.156Z,3.36
2022-11-20T10:53:28.396Z,3.42
2022-11-20T10:56:50.182Z,3.42
2022-11-20T11:00:04.801Z,3.55
2022-11-20T11:03:22.515Z,3.62
2022-11-20T11:06:49.253Z,3.76
2022-11-20T11:09:56.829Z,3.96
2022-11-20T11:12:59.328Z,4.09
2022-11-20T11:16:01.734Z,4.10
2022-11-20T11:19:12.960Z,4.15
2022-11-20T11:22:19.485Z,4.19
2022-11-20T11:25:25.850Z,4.29
2022-11-20T11:28:29.633Z,4.45
2022-11-20T11:31:34.541Z,4.45
2022-11-20T11:34:36.920Z,4.60
2022-11-20T11:37:40.407Z,4.74
2022-11-20T11:40:43.138Z,4.82
2022-11-20T11:44:16.191Z,4.81
2022-11-20T11:47:27.922Z,4.93
2022-11-20T11:50:32.289Z,4.94
2022-11-20T11:53:41.120Z,5.01
2022-11-20T11:56:45.307Z,4.95
2022-11-20T12:00:02.062Z,5.02
2022-11-20T12:03:43.153Z,5.00
2022-11-20T12:06:51.500Z,4.97
2022-11-20T12:09:58.939Z,4.75
2022-11-20T12:13:19.691Z,4.67
2022-11-20T12:16:22.439Z,4.67
2022-11-20T12:19:25.966Z,4.73
2022-11-20T12:22:37.345Z,4.71
2022-11-20T12:25:43.031Z,4.75
2022-11-20T12:29:08.264Z,4.76
2022-11-20T12:32:16.544Z,4.75
2022-11-20T12:35:51.321Z,4.71
2022-11-20T12:39:23.175Z,4.67
2022-11-20T12:43:13.813Z,4.66
2022-11-20T12:46:35.495Z,4.68
2022-11-20T12:50:03.649Z,4.66
2022-11-20T12:53:30.808Z,4.71
2022-11-20T12:57:03.573Z,4.73
2022-11-20T13:00:22.213Z,4.71
2022-11-20T13:03:49.012Z,4.69
2022-11-20T13:06:52.260Z,4.64
2022-11-20T13:09:55.560Z,4.60
2022-11-20T13:13:32.659Z,4.56
2022-11-20T13:17:04.750Z,4.56
2022-11-20T13:20:15.891Z,4.60
2022-11-20T13:23:29.432Z,4.51
2022-11-20T13:26:32.128Z,4.55
2022-11-20T13:29:36.925Z,4.59
2022-11-20T13:32:54.384Z,4.52
2022-11-20T13:36:21.148Z,4.54
2022-11-20T13:39:37.556Z,4.46
2022-11-20T13:43:17.873Z,4.38
2022-11-20T13:46:26.706Z,4.41
2022-11-20T13:49:43.828Z,4.49
2022-11-20T13:53:07.284Z,4.51
2022-11-20T13:56:39.115Z,4.58
2022-11-20T14:00:11.999Z,4.58
2022-11-20T14:03:28.413Z,4.60
2022-11-20T14:06:45.419Z,4.65
2022-11-20T14:10:07.147Z,4.70
2022-11-20T14:13:33.231Z,4.70
2022-11-20T14:16:37.947Z,4.71
2022-11-20T14:19:45.917Z,4.70
2022-11-20T14:22:55.105Z,4.75
2022-11-20T14:26:05.903Z,4.76
2022-11-20T14:29:31.449Z,4.74
2022-11-20T14:32:36.649Z,4.73
2022-11-20T14:35:49.081Z,4.72
2022-11-20T14:38:54.116Z,4.74
2022-11-20T14:41:56.950Z,4.74
2022-11-20T14:45:00.988Z,4.76
2022-11-20T14:48:03.766Z,4.67
2022-11-20T14:51:06.389Z,4.63
2022-11-20T14:54:18.784Z,4.63
2022-11-20T14:57:35.680Z,4.63
2022-11-20T15:00:38.847Z,4.60
2022-11-20T15:03:42.744Z,4.58
2022-11-20T15:06:55.587Z,4.58
2022-11-20T15:10:10.051Z,4.59
2022-11-20T15:13:16.953Z,4.58
2022-11-20T15:16:22.403Z,4.57
2022-11-20T15:19:27.778Z,4.54
2022-11-20T15:22:30.626Z,4.53
2022-11-20T15:25:33.575Z,4.49
2022-11-20T15:28:43.076Z,4.45
2022-11-20T15:31:46.483Z,4.41
2022-11-20T15:34:49.115Z,4.36
2022-11-20T15:37:51.899Z,4.37
2022-11-20T15:40:54.767Z,4.36
2022-11-20T15:43:57.569Z,4.32
2022-11-20T15:47:00.726Z,4.25
2022-11-20T15:50:03.503Z,4.25
2022-11-20T15:53:06.805Z,4.22
2022-11-20T15:56:16.329Z,4.15
2022-11-20T15:59:19.280Z,4.10
2022-11-20T16:02:22.031Z,4.08
2022-11-20T16:05:24.855Z,4.07
2022-11-20T16:08:27.839Z,4.09
2022-11-20T16:11:30.733Z,4.04
2022-11-20T16:14:52.220Z,4.05
2022-11-20T16:17:55.159Z,4.01
2022-11-20T16:20:58.006Z,3.97
2022-11-20T16:24:02.740Z,3.90
2022-11-20T16:27:05.685Z,3.96
2022-11-20T16:30:09.483Z,3.93
2022-11-20T16:33:14.828Z,3.91
2022-11-20T16:36:17.739Z,3.91
2022-11-20T16:39:23.888Z,3.90
2022-11-20T16:42:29.278Z,3.88
2022-11-20T16:45:34.036Z,3.94
2022-11-20T16:48:36.869Z,3.97
2022-11-20T16:51:40.197Z,3.95
2022-11-20T16:54:44.236Z,3.93
2022-11-20T16:57:46.802Z,3.87
2022-11-20T17:00:51.808Z,3.84
2022-11-20T17:04:08.897Z,3.82
2022-11-20T17:07:13.135Z,3.83
2022-11-20T17:10:16.494Z,3.86
2022-11-20T17:13:19.327Z,3.83
2022-11-20T17:16:24.290Z,3.80
2022-11-20T17:19:27.938Z,3.81
2022-11-20T17:22:32.090Z,3.82
2022-11-20T17:25:35.331Z,3.83
2022-11-20T17:28:39.688Z,3.80
2022-11-20T17:31:43.549Z,3.81
2022-11-20T17:34:46.895Z,3.79
2022-11-20T17:37:50.037Z,3.78
2022-11-20T17:40:52.557Z,3.79
2022-11-20T17:43:57.767Z,3.83
2022-11-20T17:47:00.793Z,3.74
2022-11-20T17:50:05.208Z,3.80
2022-11-20T17:53:09.100Z,3.76
2022-11-20T17:56:32.528Z,3.70
2022-11-20T17:59:35.601Z,3.68
2022-11-20T18:02:38.677Z,3.63
2022-11-20T18:05:41.601Z,3.64
2022-11-20T18:08:44.909Z,3.65
2022-11-20T18:11:47.372Z,3.66
2022-11-20T18:14:50.175Z,3.64
2022-11-20T18:17:53.130Z,3.56
2022-11-20T18:20:56.271Z,3.58
2022-11-20T18:23:59.345Z,3.61
2022-11-20T18:27:02.480Z,3.59
2022-11-20T18:30:05.957Z,3.57
2022-11-20T18:33:10.087Z,3.54
2022-11-20T18:36:19.149Z,3.47
2022-11-20T18:39:22.591Z,3.41
2022-11-20T18:42:44.117Z,3.37
2022-11-20T18:45:47.051Z,3.27
2022-11-20T18:48:50.111Z,3.26
2022-11-20T18:51:53.108Z,3.22
2022-11-20T18:54:56.154Z,3.21
2022-11-20T18:57:59.133Z,3.20
2022-11-20T19:01:08.942Z,3.19
2022-11-20T19:04:13.834Z,3.13
2022-11-20T19:07:17.312Z,3.10
2022-11-20T19:10:20.932Z,3.08
2022-11-20T19:13:24.045Z,3.08
2022-11-20T19:16:26.741Z,3.01
2022-11-20T19:19:29.886Z,3.02
2022-11-20T19:22:32.858Z,3.01
2022-11-20T19:25:38.290Z,3.00
2022-11-20T19:28:41.595Z,2.98
2022-11-20T19:31:44.636Z,3.01
2022-11-20T19:34:47.479Z,2.90
2022-11-20T19:37:52.131Z,2.91
2022-11-20T19:40:55.116Z,2.85
2022-11-20T19:43:58.691Z,2.83
2022-11-20T19:47:03.814Z,2.86
2022-11-20T19:50:07.301Z,2.81
2022-11-20T19:53:12.194Z,2.92
2022-11-20T19:56:15.237Z,2.91
2022-11-20T19:59:17.728Z,2.96
2022-11-20T20:02:20.576Z,3.00
2022-11-20T20:05:23.704Z,3.05
2022-11-20T20:08:26.677Z,3.03
2022-11-20T20:11:32.013Z,3.02
2022-11-20T20:14:35.522Z,3.05
2022-11-20T20:17:38.541Z,3.06
2022-11-20T20:20:41.975Z,3.10
2022-11-20T20:23:46.653Z,3.11
2022-11-20T20:26:52.304Z,3.10
2022-11-20T20:29:57.196Z,3.06
2022-11-20T20:33:01.748Z,3.02
2022-11-20T20:36:09.051Z,3.00
2022-11-20T20:39:12.398Z,3.06
2022-11-20T20:42:20.632Z,3.08
2022-11-20T20:45:23.651Z,3.07
2022-11-20T20:48:26.462Z,3.02
2022-11-20T20:51:29.812Z,3.06
2022-11-20T20:54:34.508Z,3.08
2022-11-20T20:57:38.167Z,3.09
2022-11-20T21:00:41.127Z,3.08
2022-11-20T21:03:43.884Z,3.10
2022-11-20T21:06:46.785Z,3.09
2022-11-20T21:09:49.826Z,3.06
2022-11-20T21:12:53.165Z,3.08
2022-11-20T21:15:56.053Z,3.13
2022-11-20T21:18:58.697Z,3.12
2022-11-20T21:22:01.819Z,3.08
2022-11-20T21:25:04.867Z,3.08
2022-11-20T21:28:08.599Z,3.04
2022-11-20T21:31:16.421Z,3.05
2022-11-20T21:34:20.591Z,3.06
2022-11-20T21:37:23.781Z,3.17
2022-11-20T21:40:26.446Z,3.14
2022-11-20T21:43:29.098Z,3.19
2022-11-20T21:46:33.382Z,3.15
2022-11-20T21:49:35.830Z,3.12
2022-11-20T21:52:38.384Z,3.16
2022-11-20T21:55:40.848Z,3.17
2022-11-20T21:58:44.143Z,3.16
2022-11-20T22:01:46.558Z,3.08
2022-11-20T22:04:49.329Z,3.03
2022-11-20T22:07:51.673Z,3.05
2022-11-20T22:11:06.341Z,3.03
2022-11-20T22:14:24.078Z,3.03
2022-11-20T22:17:45.450Z,2.99
2022-11-20T22:20:47.856Z,2.96
2022-11-20T22:23:51.106Z,2.89
2022-11-20T22:26:53.587Z,2.89
2022-11-20T22:29:55.945Z,2.87
2022-11-20T22:32:58.335Z,2.94
2022-11-20T22:36:08.529Z,2.94
2022-11-20T22:39:10.998Z,2.86
2022-11-20T22:42:13.321Z,2.85
2022-11-20T22:45:15.972Z,2.85
2022-11-20T22:48:18.345Z,2.85
2022-11-20T22:51:23.456Z,2.85
2022-11-20T22:54:26.022Z,2.91
2022-11-20T22:57:28.586Z,2.94
2022-11-20T23:00:31.064Z,2.95
2022-11-20T23:03:33.485Z,2.95
2022-11-20T23:06:36.057Z,2.86
2022-11-20T23:09:38.506Z,2.80
2022-11-20T23:12:40.982Z,2.71
2022-11-20T23:15:43.428Z,2.66
2022-11-20T23:18:46.495Z,2.65
2022-11-20T23:21:49.957Z,2.58
2022-11-20T23:24:52.314Z,2.56
2022-11-20T23:27:54.874Z,2.59
2022-11-20T23:30:57.980Z,2.57
2022-11-20T23:34:00.519Z,2.58
2022-11-20T23:37:02.892Z,2.55
2022-11-20T23:40:06.171Z,2.56
2022-11-20T23:43:17.795Z,2.53
2022-11-20T23:46:20.370Z,2.52
2022-11-20T23:49:22.755Z,2.55
2022-11-20T23:52:26.665Z,2.54
2022-11-20T23:55:29.306Z,2.46
2022-11-20T23:58:34.662Z,2.50
